Time;durP1;ratioP1;P1;durP2;ratioP2;P2;SDS_P1;SDS_P2;PMS_P1;PMS_P2;Temp;Humidity;BMP_temperature;BMP_pressure;BME280_temperature;BME280_humidity;BME280_pressure;Samples;Min_cycle;Max_cycle;Signal;HPM_P1;HPM_P2
2022/08/04 00:04:56;;;;;;;5.90;0.68;;;;;;;22.81;64.90;98197.09;15284312;19;20027;-66
2022/08/04 00:10:03;;;;;;;1.98;0.60;;;;;;;22.68;64.40;98187.25;15275571;19;20027;-64
2022/08/04 00:15:12;;;;;;;2.05;0.60;;;;;;;22.69;65.52;98192.47;15279815;19;20014;-66
2022/08/04 00:20:43;;;;;;;1.55;0.60;;;;;;;22.67;66.69;98191.06;15290092;19;20025;-65
2022/08/04 00:25:48;;;;;;;4.40;0.70;;;;;;;22.61;67.91;98190.16;15299287;19;20022;-65
2022/08/04 00:30:54;;;;;;;1.77;0.70;;;;;;;22.53;70.18;98190.50;15296120;19;20656;-63
2022/08/04 00:36:04;;;;;;;2.55;0.75;;;;;;;22.49;71.81;98194.84;15295829;19;20043;-64
2022/08/04 00:41:21;;;;;;;2.47;0.70;;;;;;;22.45;74.67;98189.03;15297456;19;20023;-66
2022/08/04 00:46:45;;;;;;;4.38;0.80;;;;;;;22.36;76.55;98191.28;15286734;19;20035;-66
2022/08/04 00:52:02;;;;;;;2.38;0.88;;;;;;;22.29;78.69;98196.06;15291622;19;20503;-66
2022/08/04 00:57:33;;;;;;;2.50;0.70;;;;;;;22.27;79.11;98188.06;15296139;19;20018;-65
2022/08/04 01:02:41;;;;;;;;;;;;;;;22.21;83.87;98191.81;15296446;19;20467;-63
2022/08/04 01:08:16;;;;;;;4.45;0.80;;;;;;;22.17;81.54;98191.44;15295341;19;19922;-66
2022/08/04 01:13:40;;;;;;;3.10;0.70;;;;;;;22.12;80.06;98187.75;15296472;19;20018;-65
2022/08/04 01:18:53;;;;;;;2.40;0.80;;;;;;;22.03;80.76;98187.31;15282735;19;20011;-64
2022/08/04 01:24:29;;;;;;;4.15;0.90;;;;;;;21.98;84.22;98198.16;15296460;19;20023;-66
2022/08/04 01:29:42;;;;;;;1.42;0.70;;;;;;;21.92;81.88;98190.91;15289934;19;20687;-66
2022/08/04 01:34:54;;;;;;;1.33;0.70;;;;;;;21.88;83.86;98192.47;15296248;19;20038;-65
2022/08/04 01:40:03;;;;;;;2.45;0.90;;;;;;;21.82;86.68;98192.34;15290740;19;20014;-65
2022/08/04 01:45:13;;;;;;;3.72;0.80;;;;;;;21.79;86.71;98189.25;15293072;19;20017;-64
2022/08/04 01:50:18;;;;;;;1.17;0.77;;;;;;;21.69;90.03;98187.94;15278926;19;20018;-63
2022/08/04 01:55:24;;;;;;;3.17;0.90;;;;;;;21.60;91.71;98194.88;15294528;19;20037;-64
2022/08/04 02:01:01;;;;;;;4.97;0.80;;;;;;;21.52;94.19;98196.03;15293275;19;20021;-64
2022/08/04 02:06:22;;;;;;;2.97;0.70;;;;;;;21.45;96.03;98200.81;15292198;19;20363;-65
2022/08/04 02:11:28;;;;;;;1.88;0.85;;;;;;;21.34;96.69;98196.97;15289823;19;20018;-64
2022/08/04 02:16:45;;;;;;;3.88;0.70;;;;;;;21.25;98.68;98191.00;15291795;19;20031;-65
2022/08/04 02:22:04;;;;;;;2.30;0.70;;;;;;;21.14;99.53;98189.09;15280012;19;20051;-65
2022/08/04 02:27:11;;;;;;;1.60;0.70;;;;;;;21.03;100.00;98181.69;15290958;19;20014;-65
2022/08/04 02:32:27;;;;;;;1.77;0.70;;;;;;;20.96;100.00;98179.06;15287977;19;20015;-65
2022/08/04 02:37:33;;;;;;;1.52;0.60;;;;;;;20.89;100.00;98173.69;15289802;19;20010;-64
2022/08/04 02:42:39;;;;;;;2.65;0.70;;;;;;;20.84;100.00;98179.03;15288272;19;20694;-64
2022/08/04 02:47:49;;;;;;;1.48;0.93;;;;;;;20.79;100.00;98173.41;15289108;19;20023;-64
2022/08/04 02:53:20;;;;;;;3.72;0.90;;;;;;;20.72;100.00;98170.75;15275774;19;20014;-65
2022/08/04 02:58:33;;;;;;;2.22;0.80;;;;;;;20.68;100.00;98169.56;15288741;19;20013;-65
2022/08/04 03:03:48;;;;;;;3.15;0.80;;;;;;;20.63;100.00;98175.75;15290556;19;20083;-64
2022/08/04 03:09:32;;;;;;;1.70;0.90;;;;;;;20.59;100.00;98170.94;15285783;19;20010;-64
2022/08/04 03:21:16;;;;;;;2.25;0.77;;;;;;;20.47;100.00;98174.47;15284316;19;20011;-64
2022/08/04 03:26:48;;;;;;;3.38;0.80;;;;;;;20.42;100.00;98177.09;15274807;19;20022;-64
2022/08/04 03:32:14;;;;;;;1.45;0.77;;;;;;;20.37;100.00;98182.41;15285957;19;20029;-64
2022/08/04 03:37:51;;;;;;;1.25;0.80;;;;;;;20.30;100.00;98193.44;15285535;19;20022;-63
2022/08/04 03:43:29;;;;;;;1.30;0.70;;;;;;;20.24;100.00;98188.88;15286404;19;20018;-63
2022/08/04 03:49:21;;;;;;;2.03;0.80;;;;;;;20.17;100.00;98188.13;15283249;19;20015;-63
2022/08/04 03:55:02;;;;;;;4.68;0.90;;;;;;;20.12;100.00;98193.47;15287617;19;20536;-64
2022/08/04 04:00:10;;;;;;;2.05;0.93;;;;;;;20.09;100.00;98188.44;15273326;19;20014;-64
2022/08/04 04:05:50;;;;;;;1.65;0.80;;;;;;;20.05;100.00;98181.78;15287095;19;20086;-63
2022/08/04 04:11:24;;;;;;;1.95;0.80;;;;;;;20.01;100.00;98190.44;15284521;19;20014;-64
2022/08/04 04:16:51;;;;;;;0.90;0.80;;;;;;;20.01;100.00;98190.44;15285865;19;20023;-64
2022/08/04 04:22:19;;;;;;;2.40;0.93;;;;;;;20.01;100.00;98190.44;15285915;19;20010;-64
2022/08/04 04:27:39;;;;;;;7.07;0.95;;;;;;;20.05;100.00;98190.81;15278026;19;20051;-64
2022/08/04 04:33:01;;;;;;;4.50;0.88;;;;;;;20.08;100.00;98198.56;15277627;19;20474;-64
2022/08/04 04:38:31;;;;;;;2.90;0.90;;;;;;;20.12;100.00;98198.94;15282011;19;20018;-64
2022/08/04 04:43:59;;;;;;;0.90;0.80;;;;;;;20.16;100.00;98202.88;15285412;19;20010;-64
2022/08/04 04:49:11;;;;;;;1.48;0.75;;;;;;;20.18;100.00;98208.94;15280117;19;20027;-64
2022/08/04 04:54:29;;;;;;;1.77;0.85;;;;;;;20.25;100.00;98217.06;15282294;19;20018;-64
2022/08/04 04:59:41;;;;;;;2.38;0.73;;;;;;;20.32;100.00;98215.91;15276759;19;20075;-64
2022/08/04 05:05:19;;;;;;;2.20;0.80;;;;;;;20.40;100.00;98211.22;15283302;19;20031;-64
2022/08/04 05:10:35;;;;;;;0.80;0.80;;;;;;;20.50;100.00;98211.50;15291325;19;20341;-64
2022/08/04 05:15:46;;;;;;;3.92;0.90;;;;;;;20.59;100.00;98210.09;15296908;19;20407;-64
2022/08/04 05:20:57;;;;;;;2.28;0.85;;;;;;;20.70;100.00;98213.94;15295435;19;20040;-63
2022/08/04 05:26:08;;;;;;;3.60;0.93;;;;;;;20.84;100.00;98211.91;15297544;19;20018;-63
2022/08/04 05:31:28;;;;;;;4.93;0.90;;;;;;;21.00;100.00;98209.53;15293517;19;20597;-64
2022/08/04 05:36:39;;;;;;;6.13;1.00;;;;;;;21.16;100.00;98208.88;15280494;19;20267;-64
2022/08/04 05:41:46;;;;;;;4.28;1.00;;;;;;;21.33;100.00;98209.00;15294621;19;20014;-64
2022/08/04 05:47:04;;;;;;;4.18;1.00;;;;;;;21.49;100.00;98212.94;15291855;19;20010;-64
2022/08/04 05:52:11;;;;;;;2.97;0.77;;;;;;;21.68;100.00;98210.97;15280504;19;20006;-62
2022/08/04 05:57:17;;;;;;;4.53;0.90;;;;;;;21.87;100.00;98208.09;15308191;19;20011;-61
2022/08/04 06:02:26;;;;;;;1.92;1.00;;;;;;;22.01;100.00;98209.47;15301434;19;20039;-60
2022/08/04 06:07:31;;;;;;;3.95;0.90;;;;;;;22.22;100.00;98209.09;15296209;19;20007;-62
2022/08/04 06:12:57;;;;;;;2.40;0.90;;;;;;;22.39;100.00;98204.53;15302182;19;20646;-62
2022/08/04 06:18:08;;;;;;;1.83;0.98;;;;;;;22.57;98.68;98198.03;15303619;19;20023;-64
2022/08/04 06:23:34;;;;;;;;;;;;;;;22.84;94.58;98208.41;15303845;19;20070;-60
2022/08/04 06:28:58;;;;;;;3.50;0.77;;;;;;;23.04;93.27;98209.88;15301850;19;19922;-63
2022/08/04 06:34:07;;;;;;;2.40;0.68;;;;;;;23.26;89.28;98201.75;15299300;19;20015;-61
2022/08/04 06:39:13;;;;;;;1.85;1.02;;;;;;;23.51;88.16;98203.22;15285946;19;20018;-64
2022/08/04 06:44:20;;;;;;;1.30;0.70;;;;;;;23.81;82.37;98208.34;15302359;19;20231;-64
2022/08/04 06:49:34;;;;;;;4.47;0.88;;;;;;;24.06;79.87;98207.06;15294469;19;20010;-62
2022/08/04 06:54:59;;;;;;;3.50;0.90;;;;;;;24.38;76.12;98209.13;15298229;19;21028;-59
2022/08/04 07:00:08;;;;;;;1.45;0.63;;;;;;;24.71;69.52;98209.25;15299730;19;20018;-61
2022/08/04 07:05:16;;;;;;;2.60;0.90;;;;;;;25.04;64.14;98207.38;15295779;19;20010;-62
2022/08/04 07:10:24;;;;;;;2.30;0.70;;;;;;;25.40;62.07;98210.44;15287166;19;20011;-64
2022/08/04 07:15:29;;;;;;;2.08;0.65;;;;;;;25.69;60.87;98210.94;15286240;19;20018;-61
2022/08/04 07:20:37;;;;;;;1.33;0.50;;;;;;;25.99;59.26;98217.75;15289731;19;20010;-61
2022/08/04 07:25:44;;;;;;;2.08;0.63;;;;;;;26.23;59.99;98205.47;15294384;19;20025;-62
2022/08/04 07:31:13;;;;;;;3.10;0.70;;;;;;;26.57;57.50;98205.91;15288636;19;20006;-62
2022/08/04 07:36:40;;;;;;;2.55;0.57;;;;;;;26.79;58.20;98201.25;15287963;19;20021;-64
2022/08/04 07:41:55;;;;;;;0.85;0.60;;;;;;;27.04;56.56;98193.00;15284391;19;20061;-67
2022/08/04 07:47:01;;;;;;;1.75;0.60;;;;;;;27.30;56.68;98190.25;15284579;19;20026;-63
2022/08/04 07:52:20;;;;;;;0.93;0.50;;;;;;;27.49;55.20;98203.53;15291422;19;20041;-64
2022/08/04 07:57:29;;;;;;;2.00;0.60;;;;;;;27.59;55.06;98191.66;15274188;19;21045;-64
2022/08/04 08:02:50;;;;;;;2.28;0.80;;;;;;;27.74;54.12;98190.78;15285361;19;20014;-64
2022/08/04 08:07:58;;;;;;;2.35;0.60;;;;;;;27.95;54.05;98188.81;15288220;19;20022;-64
2022/08/04 08:13:04;;;;;;;0.63;0.50;;;;;;;28.15;53.58;98190.72;15281357;19;20504;-65
2022/08/04 08:18:09;;;;;;;1.52;0.55;;;;;;;28.39;52.29;98184.53;15288859;19;20014;-64
2022/08/04 08:23:16;;;;;;;1.92;0.50;;;;;;;28.60;51.65;98183.28;15284128;19;20023;-64
2022/08/04 08:28:25;;;;;;;1.35;0.50;;;;;;;28.91;51.39;98183.13;15283600;19;20018;-64
2022/08/04 08:33:30;;;;;;;1.98;0.60;;;;;;;29.28;48.00;98177.28;15283290;19;20018;-64
2022/08/04 08:38:46;;;;;;;3.42;0.60;;;;;;;29.54;47.13;98171.53;15282490;19;20025;-64
2022/08/04 08:44:06;;;;;;;1.95;0.50;;;;;;;29.86;46.79;98164.53;15301423;19;20035;-64
2022/08/04 08:49:44;;;;;;;1.20;0.60;;;;;;;30.25;45.40;98169.94;15296553;19;20018;-64
2022/08/04 08:55:30;;;;;;;1.27;0.40;;;;;;;30.58;43.11;98172.03;14781436;19;10001521;-64
2022/08/04 09:00:47;;;;;;;1.95;0.40;;;;;;;30.79;42.10;98166.16;15299476;19;20019;-64
2022/08/04 09:06:07;;;;;;;1.23;0.40;;;;;;;31.09;40.93;98170.44;15303081;19;20018;-64
2022/08/04 09:11:20;;;;;;;1.08;0.40;;;;;;;31.26;40.71;98155.97;15297452;19;20043;-64
2022/08/04 09:16:36;;;;;;;1.90;0.30;;;;;;;31.46;39.85;98159.56;15291786;19;20471;-64
2022/08/04 09:21:49;;;;;;;1.00;0.40;;;;;;;31.69;39.90;98154.16;15293943;19;20033;-64
2022/08/04 09:27:01;;;;;;;1.00;0.40;;;;;;;31.87;38.93;98161.59;15295219;19;20018;-64
2022/08/04 09:32:13;;;;;;;1.05;0.50;;;;;;;32.01;39.57;98150.44;15297816;19;20793;-64
2022/08/04 09:37:30;;;;;;;1.13;0.40;;;;;;;32.27;37.19;98139.63;15299655;19;20054;-64
2022/08/04 09:42:49;;;;;;;1.50;0.35;;;;;;;32.50;37.20;98144.44;15305195;19;20019;-64
2022/08/04 09:47:58;;;;;;;2.80;0.55;;;;;;;32.67;37.56;98144.59;15293784;19;20022;-64
2022/08/04 09:53:28;;;;;;;2.10;0.30;;;;;;;32.80;35.51;98148.50;15291916;19;20294;-64
2022/08/04 09:59:03;;;;;;;1.95;0.40;;;;;;;32.89;35.73;98152.19;15293419;19;20361;-64
2022/08/04 10:04:13;;;;;;;0.80;0.38;;;;;;;32.99;35.76;98139.97;15297688;19;20793;-64
2022/08/04 10:09:36;;;;;;;1.20;0.40;;;;;;;33.12;35.17;98140.22;15295216;19;20010;-64
2022/08/04 10:14:52;;;;;;;0.60;0.40;;;;;;;33.26;34.93;98140.13;15288062;19;20112;-64
2022/08/04 10:20:08;;;;;;;1.80;0.40;;;;;;;33.45;34.67;98126.84;15291812;19;20027;-64
2022/08/04 10:25:32;;;;;;;2.90;0.38;;;;;;;33.63;34.64;98112.94;15292252;19;20056;-64
2022/08/04 10:31:05;;;;;;;2.38;0.22;;;;;;;33.75;34.45;98115.13;15292434;19;20014;-64
2022/08/04 10:36:12;;;;;;;2.75;0.40;;;;;;;34.00;34.60;98121.97;15297413;19;20018;-64
2022/08/04 10:41:27;;;;;;;3.87;0.37;;;;;;;34.24;34.14;98120.72;15292887;19;20661;-64
2022/08/04 10:46:40;;;;;;;0.40;0.30;;;;;;;34.52;34.07;98104.50;15296992;19;20072;-64
2022/08/04 10:51:51;;;;;;;1.00;0.40;;;;;;;34.64;33.63;98101.03;15292881;19;20028;-64
2022/08/04 10:57:09;;;;;;;0.30;0.30;;;;;;;34.68;32.71;98101.22;15288666;19;20025;-64
2022/08/04 11:02:44;;;;;;;0.45;0.25;;;;;;;34.57;32.23;98089.53;15290337;19;20331;-64
2022/08/04 11:07:55;;;;;;;2.45;0.30;;;;;;;34.55;32.67;98097.41;15287121;19;20018;-65
2022/08/04 11:13:09;;;;;;;1.05;0.32;;;;;;;34.54;32.83;98090.19;15286686;19;20013;-65
2022/08/04 11:18:47;;;;;;;1.33;0.40;;;;;;;34.52;32.74;98092.47;15290142;19;20007;-65
2022/08/04 11:24:03;;;;;;;1.48;0.30;;;;;;;34.70;32.37;98090.50;15286716;19;20019;-65
2022/08/04 11:29:18;;;;;;;2.10;0.40;;;;;;;34.80;32.59;98089.34;15286909;19;20352;-65
2022/08/04 11:34:27;;;;;;;2.88;0.25;;;;;;;34.91;32.20;98087.84;15281581;19;20035;-65
2022/08/04 11:39:37;;;;;;;1.70;0.30;;;;;;;35.14;32.03;98084.88;15287666;19;20039;-65
2022/08/04 11:44:49;;;;;;;0.75;0.35;;;;;;;35.46;31.15;98085.47;15285434;19;20014;-65
2022/08/04 11:50:04;;;;;;;2.60;0.30;;;;;;;35.62;31.11;98083.75;15291655;19;20486;-65
2022/08/04 11:55:11;;;;;;;1.77;0.30;;;;;;;35.84;31.21;98079.03;15282795;19;20023;-65
2022/08/04 12:00:20;;;;;;;1.05;0.40;;;;;;;35.91;31.05;98076.56;15280979;19;20018;-65
2022/08/04 12:05:32;;;;;;;1.80;0.30;;;;;;;35.76;30.39;98072.31;15290548;19;20010;-65
2022/08/04 12:10:48;;;;;;;4.13;0.30;;;;;;;35.56;30.04;98076.72;15287434;19;20025;-65
2022/08/04 12:16:04;;;;;;;0.55;0.20;;;;;;;35.45;30.41;98072.66;15289133;19;20022;-65
2022/08/04 12:21:16;;;;;;;1.65;0.40;;;;;;;35.72;30.95;98073.34;15304143;19;20349;-65
2022/08/04 12:26:29;;;;;;;0.50;0.38;;;;;;;36.02;30.18;98062.16;15299029;19;20025;-65
2022/08/04 12:31:41;;;;;;;1.88;0.30;;;;;;;35.96;30.38;98061.53;15290150;19;20384;-63
2022/08/04 12:36:55;;;;;;;0.60;0.40;;;;;;;36.13;29.89;98056.97;15305412;19;20039;-63
2022/08/04 12:42:05;;;;;;;1.85;0.30;;;;;;;36.43;29.76;98049.34;15301585;19;20006;-64
2022/08/04 12:47:12;;;;;;;1.27;0.30;;;;;;;36.77;30.45;98053.00;15307099;19;20366;-63
2022/08/04 12:52:49;;;;;;;1.75;0.40;;;;;;;37.03;28.85;98049.16;15306246;19;20014;-64
2022/08/04 12:58:14;;;;;;;1.17;0.30;;;;;;;36.73;28.90;98054.88;15271681;19;20047;-64
2022/08/04 13:03:41;;;;;;;1.48;0.40;;;;;;;37.12;29.44;98049.88;15294982;19;20018;-64
2022/08/04 13:08:49;;;;;;;2.17;0.28;;;;;;;37.40;28.10;98035.22;15297106;19;20035;-64
2022/08/04 13:13:57;;;;;;;3.35;0.35;;;;;;;37.09;28.23;98025.31;15293490;19;20027;-64
2022/08/04 13:19:22;;;;;;;0.80;0.20;;;;;;;37.02;28.52;98019.44;15298041;19;20025;-64
2022/08/04 13:24:32;;;;;;;0.32;0.20;;;;;;;37.12;27.35;98016.16;15292674;19;20018;-63
2022/08/04 13:29:59;;;;;;;2.60;0.30;;;;;;;37.10;28.33;98015.72;15297189;19;20018;-64
2022/08/04 13:35:10;;;;;;;0.28;0.10;;;;;;;37.32;28.40;98019.25;15301325;19;20099;-64
2022/08/04 13:40:23;;;;;;;2.50;0.35;;;;;;;37.25;28.44;98016.19;15296536;19;20043;-64
2022/08/04 13:45:35;;;;;;;1.80;0.40;;;;;;;37.11;28.88;98011.72;15296183;19;20022;-64
2022/08/04 13:50:47;;;;;;;0.55;0.30;;;;;;;37.07;29.01;98004.34;15296550;19;20135;-64
2022/08/04 13:56:00;;;;;;;1.23;0.20;;;;;;;37.56;28.38;98009.22;15289622;19;20047;-64
2022/08/04 14:01:11;;;;;;;0.40;0.25;;;;;;;37.97;28.35;97993.28;15296445;19;20015;-64
2022/08/04 14:06:18;;;;;;;1.85;0.30;;;;;;;38.49;27.76;97990.81;15300532;19;20673;-64
2022/08/04 14:11:36;;;;;;;0.70;0.40;;;;;;;39.04;26.95;97987.47;15290319;19;20490;-64
2022/08/04 14:17:04;;;;;;;1.80;0.25;;;;;;;39.24;26.91;97977.94;15286285;19;20014;-64
2022/08/04 14:22:09;;;;;;;0.30;0.30;;;;;;;38.97;27.37;97982.47;15295264;19;20043;-64
2022/08/04 14:27:21;;;;;;;1.38;0.30;;;;;;;38.56;27.39;97976.94;15291649;19;20369;-64
2022/08/04 14:32:26;;;;;;;0.88;0.40;;;;;;;38.12;27.78;97979.66;15299427;19;20054;-64
2022/08/04 14:37:32;;;;;;;1.02;0.30;;;;;;;38.55;27.32;97975.28;15289371;19;20014;-63
2022/08/04 14:42:54;;;;;;;2.38;0.20;;;;;;;38.87;27.23;97966.91;15291876;19;20029;-63
2022/08/04 14:48:01;;;;;;;0.77;0.25;;;;;;;39.54;27.02;97962.56;15289614;19;20082;-64
2022/08/04 14:53:08;;;;;;;1.40;0.25;;;;;;;40.13;26.66;97960.72;15288532;19;20002;-63
2022/08/04 14:58:22;;;;;;;0.57;0.25;;;;;;;40.73;25.69;97955.88;15287650;19;20039;-64
2022/08/04 15:03:44;;;;;;;1.02;0.30;;;;;;;41.18;24.75;97957.13;15289570;19;20077;-63
2022/08/04 15:08:57;;;;;;;1.98;0.28;;;;;;;41.06;25.07;97955.31;15288105;19;20018;-64
2022/08/04 15:14:07;;;;;;;0.85;0.30;;;;;;;41.21;24.71;97955.56;15285118;19;20023;-63
2022/08/04 15:19:33;;;;;;;3.83;0.40;;;;;;;40.69;24.71;97946.56;15286073;19;20013;-63
2022/08/04 15:24:38;;;;;;;1.25;0.20;;;;;;;40.28;25.86;97944.94;15285327;19;20022;-63
2022/08/04 15:29:49;;;;;;;2.22;0.30;;;;;;;39.76;25.91;97947.81;15289348;19;20477;-63
2022/08/04 15:35:08;;;;;;;0.55;0.20;;;;;;;39.52;26.10;97931.94;15286443;19;20026;-63
2022/08/04 15:40:18;;;;;;;0.95;0.25;;;;;;;39.50;26.48;97928.69;15288606;19;20011;-64
2022/08/04 15:45:50;;;;;;;3.08;0.43;;;;;;;40.00;25.55;97914.09;15282318;19;20044;-63
2022/08/04 15:51:26;;;;;;;;;;;;;;;40.76;25.07;97922.06;15288467;19;20022;-64
2022/08/04 15:56:47;;;;;;;1.35;0.30;;;;;;;40.85;24.34;97927.47;15284765;19;19934;-64
2022/08/04 16:02:48;;;;;;;1.52;0.20;;;;;;;41.08;23.83;97913.38;15289317;19;20014;-64
2022/08/04 16:08:03;;;;;;;0.88;0.22;;;;;;;40.74;24.23;97910.34;15291861;19;20589;-64
2022/08/04 16:13:12;;;;;;;1.13;0.25;;;;;;;40.46;25.28;97904.94;15282826;19;20039;-64
2022/08/04 16:18:39;;;;;;;2.05;0.30;;;;;;;40.41;25.02;97903.25;15280485;19;20014;-64
2022/08/04 16:24:11;;;;;;;1.33;0.25;;;;;;;40.74;24.43;97910.34;15282677;19;20031;-64
2022/08/04 16:29:33;;;;;;;1.48;0.30;;;;;;;40.87;23.70;97904.50;15283832;19;20027;-64
2022/08/04 16:34:40;;;;;;;0.77;0.22;;;;;;;40.87;24.38;97904.50;15284436;19;20022;-64
2022/08/04 16:40:12;;;;;;;;;;;;;;;40.94;23.02;97902.59;15283707;19;20022;-64
2022/08/04 16:45:20;;;;;;;0.32;0.20;;;;;;;41.07;23.63;97894.78;15288420;19;19926;-64
2022/08/04 16:50:25;;;;;;;0.97;0.27;;;;;;;41.21;23.73;97894.19;15278256;19;20134;-64
2022/08/04 16:55:30;;;;;;;0.73;0.28;;;;;;;41.22;23.37;97895.03;15279826;19;20018;-65
2022/08/04 17:00:39;;;;;;;2.22;0.30;;;;;;;41.24;23.73;97893.44;15276421;19;20018;-64
2022/08/04 17:05:44;;;;;;;;;;;;;;;41.09;23.36;97885.94;15305209;19;20010;-65
2022/08/04 17:10:50;;;;;;;1.55;0.30;;;;;;;41.10;23.75;97882.75;15294246;19;20260;-64
2022/08/04 17:16:00;;;;;;;2.50;0.20;;;;;;;40.98;23.78;97880.88;15291864;19;20489;-64
2022/08/04 17:21:07;;;;;;;0.70;0.22;;;;;;;40.47;23.53;97881.16;15286278;19;20094;-66
2022/08/04 17:26:17;;;;;;;0.88;0.30;;;;;;;39.69;24.87;97879.97;15308706;19;20014;-65
2022/08/04 17:31:26;;;;;;;0.45;0.20;;;;;;;39.26;24.60;97870.53;15302615;19;20022;-65
2022/08/04 17:36:33;;;;;;;0.93;0.30;;;;;;;38.82;25.39;97865.84;15302230;19;20018;-65
2022/08/04 17:41:38;;;;;;;0.95;0.20;;;;;;;38.64;25.43;97871.00;15299514;19;20022;-66
2022/08/04 17:46:55;;;;;;;0.57;0.30;;;;;;;38.47;25.99;97874.97;15303687;19;20028;-65
2022/08/04 17:52:02;;;;;;;3.22;0.30;;;;;;;38.58;26.28;97862.00;15298670;19;20014;-64
2022/08/04 17:57:19;;;;;;;;;;;;;;;38.71;26.28;97871.16;15293459;19;20351;-64
2022/08/04 18:02:30;;;;;;;1.77;0.20;;;;;;;38.79;26.56;97873.00;15305878;19;19934;-65
2022/08/04 18:07:41;;;;;;;2.55;0.30;;;;;;;38.65;26.80;97879.06;15299099;19;20018;-63
2022/08/04 18:13:09;;;;;;;0.90;0.30;;;;;;;38.47;26.94;97869.34;15289852;19;20475;-63
2022/08/04 18:18:22;;;;;;;2.30;0.30;;;;;;;38.20;27.03;97868.97;15289772;19;20021;-59
2022/08/04 18:23:28;;;;;;;2.85;0.40;;;;;;;37.63;27.37;97866.13;15291491;19;20015;-59
2022/08/04 18:28:36;;;;;;;2.45;0.40;;;;;;;36.95;28.18;97867.59;15286287;19;20010;-62
2022/08/04 18:33:43;;;;;;;3.42;0.40;;;;;;;36.37;28.82;97869.19;15293013;19;20491;-60
2022/08/04 18:39:03;;;;;;;0.82;0.40;;;;;;;35.91;29.28;97866.31;15289394;19;20052;-60
2022/08/04 18:44:19;;;;;;;3.08;0.50;;;;;;;35.47;30.14;97872.28;15286541;19;20006;-60
2022/08/04 18:49:34;;;;;;;2.30;0.43;;;;;;;34.92;30.53;97873.22;15289167;19;20018;-60
2022/08/04 18:54:59;;;;;;;3.83;0.40;;;;;;;34.36;31.26;97876.81;15288803;19;20471;-60
2022/08/04 19:00:07;;;;;;;1.25;0.40;;;;;;;33.95;31.76;97874.25;15278531;19;20014;-61
2022/08/04 19:05:15;;;;;;;5.53;0.60;;;;;;;33.58;32.34;97875.66;15287785;19;20328;-59
2022/08/04 19:10:23;;;;;;;2.58;0.40;;;;;;;33.28;32.58;97870.66;15283615;19;20471;-60
2022/08/04 19:15:30;;;;;;;2.80;0.50;;;;;;;32.98;33.03;97869.63;15282583;19;20011;-59
2022/08/04 19:20:41;;;;;;;4.00;0.50;;;;;;;32.73;34.34;97880.34;15283609;19;20014;-64
2022/08/04 19:25:47;;;;;;;1.88;0.57;;;;;;;32.51;34.20;97882.03;15287407;19;20051;-63
2022/08/04 19:31:09;;;;;;;1.38;0.40;;;;;;;32.35;34.65;97892.75;15276924;19;20714;-64
2022/08/04 19:36:26;;;;;;;1.80;0.50;;;;;;;32.19;35.09;97897.06;15261606;19;20014;-63
2022/08/04 19:41:35;;;;;;;0.73;0.43;;;;;;;32.00;35.69;97888.88;15281202;19;20042;-62
2022/08/04 19:47:00;;;;;;;1.98;0.50;;;;;;;31.80;35.92;97899.38;15284977;19;20019;-63
2022/08/04 19:52:27;;;;;;;2.90;0.40;;;;;;;31.56;37.29;97905.19;15282512;19;20007;-63
2022/08/04 19:57:42;;;;;;;1.48;0.52;;;;;;;31.39;37.48;97894.69;15284950;19;20425;-62
2022/08/04 20:02:50;;;;;;;2.35;0.63;;;;;;;31.25;37.19;97903.06;15280130;19;20010;-63
2022/08/04 20:07:57;;;;;;;1.92;0.50;;;;;;;31.13;37.36;97906.34;15285728;19;20027;-62
2022/08/04 20:13:03;;;;;;;2.40;0.50;;;;;;;31.02;37.27;97905.72;15285355;19;20370;-61
2022/08/04 20:18:14;;;;;;;;;;;;;;;30.89;37.91;97897.06;15284914;19;20011;-62
2022/08/04 20:23:41;;;;;;;1.35;0.60;;;;;;;30.81;37.53;97897.75;15279519;19;19918;-62
2022/08/04 20:28:53;;;;;;;2.42;0.60;;;;;;;30.70;37.76;97897.16;15281944;19;20035;-62
2022/08/04 20:33:59;;;;;;;2.72;0.52;;;;;;;30.55;38.22;97900.22;15280977;19;20042;-62
2022/08/04 20:39:07;;;;;;;3.42;0.50;;;;;;;30.42;38.83;97897.06;15280954;19;20022;-62
2022/08/04 20:44:13;;;;;;;0.77;0.45;;;;;;;30.21;39.45;97891.06;15295504;19;20017;-62
2022/08/04 20:49:27;;;;;;;1.13;0.50;;;;;;;30.03;39.61;97894.69;15294309;19;20382;-62
2022/08/04 20:54:43;;;;;;;3.90;0.50;;;;;;;29.87;40.26;97897.66;15293451;19;20086;-62
2022/08/04 20:59:53;;;;;;;1.98;0.60;;;;;;;29.75;40.25;97892.56;15294664;19;20025;-61
2022/08/04 21:05:04;;;;;;;2.17;0.60;;;;;;;29.66;39.78;97892.41;15298151;19;20097;-61
2022/08/04 21:10:15;;;;;;;2.03;0.60;;;;;;;29.62;40.07;97890.53;15287536;19;20011;-62
2022/08/04 21:15:26;;;;;;;2.25;0.60;;;;;;;29.59;40.23;97891.13;15304961;19;20006;-62
2022/08/04 21:20:51;;;;;;;1.02;0.50;;;;;;;29.41;41.08;97893.63;15296225;19;20078;-62
2022/08/04 21:26:02;;;;;;;1.63;0.60;;;;;;;29.25;41.68;97898.53;15300691;19;20096;-62
2022/08/04 21:31:07;;;;;;;1.52;0.70;;;;;;;29.08;41.89;97893.47;15307492;19;20076;-62
2022/08/04 21:36:16;;;;;;;3.92;0.63;;;;;;;28.95;41.66;97891.41;15309172;19;20018;-62
2022/08/04 21:41:26;;;;;;;3.13;0.70;;;;;;;28.84;41.41;97888.75;15300550;19;20002;-62
2022/08/04 21:46:31;;;;;;;3.85;0.60;;;;;;;28.75;42.53;97894.09;15278894;19;20019;-62
2022/08/04 21:51:38;;;;;;;3.22;0.70;;;;;;;28.36;44.68;97894.19;15299323;19;20007;-62
2022/08/04 21:57:07;;;;;;;2.42;0.60;;;;;;;28.10;44.59;97897.19;15298815;19;20011;-61
2022/08/04 22:02:13;;;;;;;4.50;0.70;;;;;;;27.95;44.67;97904.47;15294693;19;20007;-62
2022/08/04 22:07:19;;;;;;;2.08;0.60;;;;;;;27.84;44.98;97900.09;15301371;19;20029;-63
2022/08/04 22:12:29;;;;;;;2.75;0.70;;;;;;;27.79;44.48;97912.03;15297056;19;20021;-63
2022/08/04 22:23:29;;;;;;;1.25;0.55;;;;;;;27.71;44.20;97920.13;15318063;19;19983;-62
2022/08/04 22:28:59;;;;;;;3.40;0.82;;;;;;;27.67;44.27;97911.56;15305720;19;20019;-63
2022/08/04 22:34:09;;;;;;;0.85;0.60;;;;;;;27.64;44.17;97907.44;15292256;19;20050;-63
2022/08/04 22:39:16;;;;;;;1.92;0.60;;;;;;;27.63;44.25;97910.50;15291217;19;20380;-63
2022/08/04 22:44:24;;;;;;;3.38;0.50;;;;;;;27.64;43.88;97918.50;15285900;19;20392;-62
2022/08/04 22:49:38;;;;;;;3.65;0.75;;;;;;;27.01;47.27;97924.59;15291487;19;20015;-61
2022/08/04 22:54:43;;;;;;;1.10;0.57;;;;;;;26.88;46.90;97932.34;15292515;19;20483;-60
2022/08/04 22:59:53;;;;;;;1.10;0.65;;;;;;;26.66;47.97;97921.59;15286924;19;20490;-61
2022/08/04 23:04:58;;;;;;;3.53;0.70;;;;;;;26.52;49.16;97937.09;15288210;19;20027;-62
2022/08/04 23:10:03;;;;;;;3.33;0.60;;;;;;;26.04;54.58;97934.56;15289169;19;20032;-62
2022/08/04 23:15:12;;;;;;;0.88;0.70;;;;;;;25.52;61.42;97935.31;15292376;19;20847;-61
2022/08/04 23:20:21;;;;;;;2.70;0.70;;;;;;;25.16;65.81;97943.41;15281110;19;20014;-62
2022/08/04 23:25:36;;;;;;;2.83;0.80;;;;;;;25.07;64.73;97942.28;15290964;19;20385;-62
2022/08/04 23:31:04;;;;;;;2.20;0.85;;;;;;;25.06;64.98;97943.34;15288938;19;20021;-62
2022/08/04 23:36:14;;;;;;;2.60;0.60;;;;;;;25.01;66.68;97943.31;15285799;19;20185;-62
2022/08/04 23:41:19;;;;;;;2.28;0.68;;;;;;;24.97;68.09;97942.22;15284478;19;20014;-61
2022/08/04 23:46:26;;;;;;;1.42;0.68;;;;;;;24.90;69.79;97945.22;15286933;19;20039;-60
2022/08/04 23:51:31;;;;;;;2.53;0.65;;;;;;;24.81;71.73;97942.13;15278742;19;20014;-62
2022/08/04 23:56:39;;;;;;;2.10;0.80;;;;;;;24.71;73.59;97939.31;15288557;19;20015;-62
